Time;durP1;ratioP1;P1;durP2;ratioP2;P2;SDS_P1;SDS_P2;PMS_P1;PMS_P2;Temp;Humidity;BMP_temperature;BMP_pressure;BME280_temperature;BME280_humidity;BME280_pressure;Samples;Min_cycle;Max_cycle;Signal;HPM_P1;HPM_P2
2023/09/11 00:00:10;;;;;;;12.45;9.00;;;19.10;71.80;;;;;;5077228;28;19904;-68
2023/09/11 00:02:36;;;;;;;12.77;8.90;;;19.00;70.80;;;;;;5077151;28;20099;-68
2023/09/11 00:05:02;;;;;;;11.65;8.60;;;18.90;70.70;;;;;;5077169;28;20119;-67
2023/09/11 00:07:29;;;;;;;14.48;8.52;;;19.00;71.00;;;;;;5077148;28;20025;-67
2023/09/11 00:09:59;;;;;;;11.48;8.32;;;18.90;70.90;;;;;;5076587;28;20474;-68
2023/09/11 00:12:25;;;;;;;10.93;8.05;;;18.90;70.90;;;;;;5077288;28;20020;-68
2023/09/11 00:14:54;;;;;;;10.35;8.43;;;19.00;71.00;;;;;;5076809;28;20035;-67
2023/09/11 00:17:20;;;;;;;13.63;8.27;;;18.90;71.00;;;;;;5076855;28;20319;-67
2023/09/11 00:19:47;;;;;;;10.20;8.35;;;19.00;71.10;;;;;;5076445;28;20070;-69
2023/09/11 00:22:13;;;;;;;11.35;8.23;;;19.00;71.00;;;;;;5076499;28;20027;-66
2023/09/11 00:24:39;;;;;;;13.20;9.60;;;18.90;71.00;;;;;;5076722;28;20098;-67
2023/09/11 00:27:09;;;;;;;10.82;8.20;;;18.90;71.00;;;;;;5076343;28;20035;-68
2023/09/11 00:29:40;;;;;;;10.75;7.63;;;18.90;70.90;;;;;;5077340;28;20033;-68
2023/09/11 00:32:08;;;;;;;12.00;8.48;;;18.90;70.90;;;;;;5076856;28;20099;-67
2023/09/11 00:34:34;;;;;;;12.98;9.65;;;18.90;71.10;;;;;;5076728;28;20032;-68
2023/09/11 00:37:00;;;;;;;13.05;9.93;;;18.90;71.10;;;;;;5076107;28;20095;-68
2023/09/11 00:39:26;;;;;;;13.77;9.30;;;18.90;71.30;;;;;;5076139;28;20024;-67
2023/09/11 00:41:51;;;;;;;14.00;9.43;;;18.90;71.10;;;;;;5058652;28;20009;-67
2023/09/11 00:44:29;;;;;;;12.45;9.00;;;18.90;71.50;;;;;;5076369;28;20443;-67
2023/09/11 00:46:58;;;;;;;14.70;10.10;;;18.80;71.30;;;;;;5075908;28;20028;-68
2023/09/11 00:49:24;;;;;;;14.20;9.45;;;18.80;71.10;;;;;;5076029;28;20046;-68
2023/09/11 00:51:51;;;;;;;13.45;9.15;;;18.80;71.00;;;;;;5076019;28;20508;-66
2023/09/11 00:54:24;;;;;;;13.15;9.55;;;18.80;71.20;;;;;;5058631;28;20020;-66
2023/09/11 00:56:51;;;;;;;13.45;9.77;;;18.70;71.10;;;;;;5075803;28;20016;-68
2023/09/11 00:59:17;;;;;;;13.57;10.07;;;18.70;71.10;;;;;;5076342;28;20051;-67
2023/09/11 01:01:48;;;;;;;12.18;9.23;;;18.60;71.50;;;;;;5075750;28;20017;-68
2023/09/11 01:04:19;;;;;;;11.43;8.77;;;18.60;71.50;;;;;;5076252;28;20024;-67
2023/09/11 01:06:46;;;;;;;13.45;9.20;;;18.50;71.50;;;;;;5075669;28;20458;-67
2023/09/11 01:09:13;;;;;;;11.43;9.60;;;18.50;71.60;;;;;;5054575;28;20052;-67
2023/09/11 01:11:39;;;;;;;12.13;9.13;;;18.50;71.60;;;;;;5056182;28;20025;-67
2023/09/11 01:14:08;;;;;;;15.35;10.55;;;18.40;71.70;;;;;;5056141;28;20099;-68
2023/09/11 01:16:47;;;;;;;14.27;10.38;;;18.40;72.10;;;;;;5055839;28;20347;-68
2023/09/11 01:19:34;;;;;;;13.65;10.20;;;18.40;72.00;;;;;;5056113;28;20331;-67
2023/09/11 01:22:13;;;;;;;15.27;10.52;;;18.40;72.40;;;;;;5055521;28;20036;-68
2023/09/11 01:24:50;;;;;;;15.82;9.57;;;18.20;72.20;;;;;;5055749;28;20412;-68
2023/09/11 01:27:36;;;;;;;12.32;8.90;;;18.30;72.40;;;;;;5055354;28;20033;-67
2023/09/11 01:30:13;;;;;;;12.48;8.43;;;18.20;72.70;;;;;;5055328;28;20100;-68
2023/09/11 01:32:41;;;;;;;12.00;8.65;;;18.20;72.90;;;;;;5055350;28;20036;-67
2023/09/11 01:35:07;;;;;;;11.98;8.88;;;18.20;72.70;;;;;;5055278;28;20033;-68
2023/09/11 01:37:33;;;;;;;12.68;8.68;;;18.20;72.80;;;;;;5055271;28;20028;-68
2023/09/11 01:40:00;;;;;;;11.30;8.75;;;18.20;72.70;;;;;;5055541;28;20025;-66
2023/09/11 01:42:43;;;;;;;12.68;9.23;;;18.20;72.50;;;;;;5055760;28;20151;-67
2023/09/11 01:45:13;;;;;;;;;;;18.30;72.70;;;;;;5055972;28;20032;-69
2023/09/11 01:47:45;;;;;;;12.55;8.45;;;18.20;73.30;;;;;;5055074;28;20321;-67
2023/09/11 01:50:20;;;;;;;10.93;8.07;;;18.30;72.20;;;;;;5055170;28;20090;-67
2023/09/11 01:53:08;;;;;;;11.50;8.30;;;18.20;72.20;;;;;;5055678;28;20021;-68
2023/09/11 01:55:36;;;;;;;12.13;8.23;;;18.20;72.50;;;;;;5055063;28;20044;-67
2023/09/11 01:58:01;;;;;;;14.45;8.45;;;18.10;72.30;;;;;;5055014;28;20025;-67
2023/09/11 02:00:28;;;;;;;13.18;9.57;;;18.10;72.30;;;;;;5055129;28;20032;-67
2023/09/11 02:02:56;;;;;;;12.05;8.75;;;18.00;72.30;;;;;;5055324;28;20095;-67
2023/09/11 02:05:25;;;;;;;16.70;11.32;;;18.00;72.60;;;;;;5055005;28;20039;-68
2023/09/11 02:07:51;;;;;;;13.98;9.98;;;18.00;72.60;;;;;;5056926;28;20021;-68
2023/09/11 02:10:20;;;;;;;11.63;9.05;;;17.90;73.10;;;;;;5075319;28;20028;-68
2023/09/11 02:12:48;;;;;;;14.90;9.30;;;18.00;73.30;;;;;;5075498;28;20025;-68
2023/09/11 02:15:17;;;;;;;13.98;8.25;;;17.90;73.20;;;;;;5074853;28;20024;-68
2023/09/11 02:17:42;;;;;;;13.98;9.10;;;18.00;73.00;;;;;;5074891;28;20039;-68
2023/09/11 02:20:10;;;;;;;15.40;9.77;;;17.90;73.10;;;;;;5074891;28;20051;-68
2023/09/11 02:22:40;;;;;;;13.80;9.27;;;17.90;73.00;;;;;;5075370;28;20085;-68
2023/09/11 02:25:06;;;;;;;15.73;9.10;;;17.90;73.00;;;;;;5074822;28;20401;-67
2023/09/11 02:27:32;;;;;;;14.82;9.68;;;17.90;72.80;;;;;;5074996;28;20024;-68
2023/09/11 02:30:00;;;;;;;12.85;9.45;;;17.90;72.70;;;;;;5075071;28;20103;-67
2023/09/11 02:32:35;;;;;;;15.88;9.55;;;17.90;73.00;;;;;;5075269;28;20123;-68
2023/09/11 02:35:05;;;;;;;15.25;8.75;;;17.90;72.80;;;;;;5074715;28;20032;-66
2023/09/11 02:37:50;;;;;;;15.68;9.07;;;17.80;72.90;;;;;;5074694;28;20071;-67
2023/09/11 02:40:16;;;;;;;13.55;9.38;;;17.70;73.20;;;;;;5075257;28;20320;-67
2023/09/11 02:42:42;;;;;;;14.50;9.93;;;17.70;73.50;;;;;;5078492;28;20017;-67
2023/09/11 02:47:36;;;;;;;18.20;11.85;;;17.70;73.10;;;;;;5078939;28;20086;-68
2023/09/11 02:50:02;;;;;;;14.45;9.90;;;17.70;73.00;;;;;;5078289;28;20028;-68
2023/09/11 02:52:36;;;;;;;12.40;8.40;;;17.60;73.40;;;;;;5078815;28;20461;-67
2023/09/11 02:55:03;;;;;;;12.50;8.75;;;17.60;73.50;;;;;;5078412;28;20307;-67
2023/09/11 02:57:29;;;;;;;13.07;9.43;;;17.50;73.60;;;;;;5078013;28;20021;-67
2023/09/11 02:59:55;;;;;;;11.90;8.90;;;17.60;73.60;;;;;;5078133;28;20069;-67
2023/09/11 03:02:22;;;;;;;13.48;9.15;;;17.60;73.60;;;;;;5077985;28;20358;-68
2023/09/11 03:04:51;;;;;;;12.98;9.30;;;17.60;73.60;;;;;;5078250;28;20147;-67
2023/09/11 03:07:20;;;;;;;13.30;8.60;;;17.60;73.50;;;;;;5078441;28;20060;-68
2023/09/11 03:09:46;;;;;;;10.18;7.80;;;17.60;73.50;;;;;;5077720;28;20139;-67
2023/09/11 03:12:12;;;;;;;12.20;8.38;;;17.50;73.60;;;;;;5077933;28;20039;-68
2023/09/11 03:14:40;;;;;;;14.65;9.98;;;17.50;73.80;;;;;;5077763;28;20032;-67
2023/09/11 03:17:07;;;;;;;11.55;8.45;;;17.50;73.70;;;;;;5078032;28;20028;-69
2023/09/11 03:19:37;;;;;;;11.73;8.65;;;17.50;73.70;;;;;;5078034;28;20020;-67
2023/09/11 03:22:03;;;;;;;12.57;8.60;;;17.50;73.70;;;;;;5078254;28;20078;-67
2023/09/11 03:24:29;;;;;;;13.60;9.80;;;17.50;73.70;;;;;;5078193;28;20366;-68
2023/09/11 03:26:55;;;;;;;13.15;9.55;;;17.50;73.50;;;;;;5077606;28;20032;-67
2023/09/11 03:29:21;;;;;;;14.65;10.10;;;17.50;74.00;;;;;;5077568;28;20031;-67
2023/09/11 03:31:47;;;;;;;12.95;9.23;;;17.50;74.00;;;;;;5077793;28;20174;-68
2023/09/11 03:34:16;;;;;;;12.60;9.35;;;17.50;73.60;;;;;;5077236;28;20512;-68
2023/09/11 03:36:44;;;;;;;10.70;8.07;;;17.60;73.90;;;;;;5077970;28;20030;-66
2023/09/11 03:39:29;;;;;;;14.70;8.77;;;17.60;73.60;;;;;;5077827;28;20343;-67
2023/09/11 03:41:56;;;;;;;15.38;9.68;;;17.50;73.50;;;;;;5077923;28;20016;-67
2023/09/11 03:44:33;;;;;;;13.13;10.15;;;17.50;73.60;;;;;;5077299;28;20021;-68
2023/09/11 03:46:59;;;;;;;10.77;7.72;;;17.50;73.70;;;;;;5077067;28;20036;-68
2023/09/11 03:49:25;;;;;;;13.27;9.60;;;17.50;74.00;;;;;;5077237;28;20024;-69
2023/09/11 03:51:51;;;;;;;12.80;9.05;;;17.50;73.90;;;;;;5077115;28;20071;-68
2023/09/11 03:54:22;;;;;;;11.48;8.10;;;17.50;73.80;;;;;;5076639;28;20043;-68
2023/09/11 03:56:49;;;;;;;14.15;7.88;;;17.50;73.70;;;;;;5077520;28;20028;-67
2023/09/11 03:59:16;;;;;;;11.20;7.57;;;17.60;73.80;;;;;;5077009;28;20036;-68
2023/09/11 04:01:44;;;;;;;12.50;8.32;;;17.60;73.30;;;;;;5076950;28;20028;-68
2023/09/11 04:04:10;;;;;;;12.20;7.80;;;17.70;73.10;;;;;;5076871;28;20055;-67
2023/09/11 04:06:53;;;;;;;9.23;7.35;;;17.80;72.90;;;;;;5077125;28;20044;-69
2023/09/11 04:09:19;;;;;;;11.53;7.77;;;17.90;72.70;;;;;;5076768;28;20067;-67
2023/09/11 04:14:10;;;;;;;10.18;6.80;;;18.10;72.10;;;;;;5077282;28;20335;-68
2023/09/11 04:16:39;;;;;;;9.77;7.10;;;18.30;72.00;;;;;;5076571;28;20031;-67
2023/09/11 04:19:05;;;;;;;11.15;7.00;;;18.40;71.60;;;;;;5076524;28;20032;-68
2023/09/11 04:21:31;;;;;;;10.93;7.05;;;18.40;71.60;;;;;;5076444;28;20088;-68
2023/09/11 04:24:12;;;;;;;10.63;6.70;;;18.50;71.40;;;;;;5076494;28;20024;-67
2023/09/11 04:26:40;;;;;;;11.05;6.35;;;18.50;71.30;;;;;;5077485;28;20119;-68
2023/09/11 04:29:10;;;;;;;10.98;6.90;;;18.60;71.10;;;;;;5076585;28;20062;-68
2023/09/11 04:31:37;;;;;;;11.23;7.28;;;18.60;70.90;;;;;;5076924;28;20024;-69
2023/09/11 04:34:08;;;;;;;9.10;6.70;;;18.60;70.80;;;;;;5076549;28;20099;-69
2023/09/11 04:36:34;;;;;;;9.70;7.07;;;18.60;70.80;;;;;;5076768;28;20028;-68
2023/09/11 04:39:04;;;;;;;8.32;5.93;;;18.60;70.80;;;;;;5076459;28;20388;-68
2023/09/11 04:41:31;;;;;;;9.82;6.18;;;18.50;70.80;;;;;;5076082;28;20043;-67
2023/09/11 04:44:02;;;;;;;10.52;6.35;;;18.50;71.00;;;;;;5076729;28;20052;-67
2023/09/11 04:46:28;;;;;;;10.02;6.60;;;18.40;71.10;;;;;;5075957;28;20438;-68
2023/09/11 04:48:57;;;;;;;12.57;7.50;;;18.40;71.20;;;;;;5075787;28;20035;-68
2023/09/11 04:51:24;;;;;;;9.57;6.75;;;18.40;71.20;;;;;;5076270;28;20043;-68
2023/09/11 04:53:50;;;;;;;10.32;6.70;;;18.30;71.30;;;;;;5075912;28;20029;-68
2023/09/11 04:56:19;;;;;;;9.10;6.53;;;18.30;71.40;;;;;;5075844;28;20465;-67
2023/09/11 04:58:46;;;;;;;10.65;6.93;;;18.30;71.40;;;;;;5076368;28;20021;-69
2023/09/11 05:01:18;;;;;;;11.82;7.65;;;18.30;71.50;;;;;;5075825;28;20031;-67
2023/09/11 05:03:46;;;;;;;11.80;7.63;;;18.40;71.50;;;;;;5075607;28;20029;-67
2023/09/11 05:06:13;;;;;;;10.93;7.97;;;18.80;71.30;;;;;;5075662;28;20035;-68
2023/09/11 05:08:43;;;;;;;12.35;8.07;;;19.20;70.70;;;;;;5075399;28;20066;-68
2023/09/11 05:11:11;;;;;;;11.00;7.60;;;19.80;69.70;;;;;;5076164;28;20147;-68
2023/09/11 05:16:03;;;;;;;13.40;7.93;;;21.00;67.40;;;;;;5076025;28;20028;-68
2023/09/11 05:18:32;;;;;;;10.75;8.10;;;21.70;66.00;;;;;;5075449;28;20024;-67
2023/09/11 05:20:58;;;;;;;10.40;7.65;;;22.40;64.10;;;;;;5076030;28;20025;-68
2023/09/11 05:23:27;;;;;;;12.70;7.75;;;23.20;62.60;;;;;;5075387;28;20143;-67
2023/09/11 05:25:53;;;;;;;11.43;7.53;;;24.00;61.00;;;;;;5075437;28;20029;-68
2023/09/11 05:28:20;;;;;;;11.05;7.20;;;24.70;59.40;;;;;;5075350;28;20500;-68
2023/09/11 05:30:46;;;;;;;11.50;7.10;;;25.50;57.80;;;;;;5075349;28;20450;-68
2023/09/11 05:33:12;;;;;;;11.48;7.20;;;26.30;56.40;;;;;;5075313;28;20025;-68
2023/09/11 05:35:38;;;;;;;12.80;7.47;;;27.00;54.80;;;;;;5075486;28;20061;-69
2023/09/11 05:38:04;;;;;;;15.00;8.10;;;27.70;53.20;;;;;;5075232;28;20416;-68
2023/09/11 05:40:30;;;;;;;14.95;8.52;;;28.40;51.70;;;;;;5075201;28;20063;-68
2023/09/11 05:42:56;;;;;;;17.13;8.75;;;29.00;50.00;;;;;;5075191;28;20025;-69
2023/09/11 05:45:26;;;;;;;13.48;8.25;;;29.50;49.10;;;;;;5075140;28;20082;-68
2023/09/11 05:47:59;;;;;;;14.07;8.23;;;30.20;48.60;;;;;;5075009;28;20070;-69
2023/09/11 05:50:27;;;;;;;;;;;30.80;47.70;;;;;;5076206;28;20108;-67
2023/09/11 05:52:53;;;;;;;16.27;8.40;;;31.60;47.30;;;;;;5057396;28;20289;-69
2023/09/11 05:55:19;;;;;;;14.70;8.95;;;32.30;45.50;;;;;;5075500;28;20078;-67
2023/09/11 05:57:48;;;;;;;19.58;8.75;;;33.00;44.60;;;;;;5075241;28;20028;-70
2023/09/11 06:00:16;;;;;;;14.93;8.90;;;33.90;43.50;;;;;;5075259;28;20021;-69
2023/09/11 06:02:45;;;;;;;16.27;8.52;;;34.60;42.40;;;;;;5075027;28;20019;-69
2023/09/11 06:05:12;;;;;;;14.25;8.63;;;35.30;41.40;;;;;;5074874;28;20116;-69
2023/09/11 06:07:38;;;;;;;15.98;8.55;;;36.10;40.30;;;;;;5074874;28;20032;-69
2023/09/11 06:10:05;;;;;;;14.25;8.50;;;36.80;39.30;;;;;;5075218;28;20064;-68
2023/09/11 06:12:32;;;;;;;17.20;9.13;;;37.50;38.10;;;;;;5074839;28;20485;-69
2023/09/11 06:14:58;;;;;;;11.05;7.45;;;38.10;37.10;;;;;;5053701;28;20079;-69
2023/09/11 06:17:24;;;;;;;11.43;7.97;;;38.70;36.60;;;;;;5056858;28;20091;-68
2023/09/11 06:19:50;;;;;;;13.05;9.23;;;39.30;35.70;;;;;;5057240;28;20041;-69
2023/09/11 06:22:16;;;;;;;12.82;8.50;;;39.90;35.00;;;;;;5057299;28;20036;-67
2023/09/11 06:24:42;;;;;;;12.15;8.48;;;40.50;34.20;;;;;;5057297;28;20040;-68
2023/09/11 06:27:08;;;;;;;9.63;8.40;;;41.10;33.30;;;;;;5057132;28;20033;-67
2023/09/11 06:29:34;;;;;;;12.82;8.02;;;41.70;32.70;;;;;;5057527;28;20043;-67
2023/09/11 06:32:01;;;;;;;9.43;7.22;;;42.00;32.20;;;;;;5056534;28;20057;-66
2023/09/11 06:34:29;;;;;;;11.43;8.23;;;42.50;31.80;;;;;;5056731;28;20431;-68
2023/09/11 06:36:56;;;;;;;10.50;7.60;;;42.90;31.20;;;;;;5056645;28;20340;-67
2023/09/11 06:39:22;;;;;;;9.38;7.35;;;43.20;30.70;;;;;;5056864;28;20041;-67
2023/09/11 06:41:48;;;;;;;12.68;7.47;;;43.50;30.40;;;;;;5056662;28;20458;-68
2023/09/11 06:44:14;;;;;;;10.85;8.45;;;43.90;30.10;;;;;;5055332;28;20443;-68
2023/09/11 06:46:40;;;;;;;11.40;7.78;;;44.30;29.50;;;;;;5056718;28;20029;-68
2023/09/11 06:49:06;;;;;;;9.20;7.07;;;44.50;29.20;;;;;;5039882;28;20033;-68
2023/09/11 06:51:33;;;;;;;10.75;7.72;;;44.90;28.70;;;;;;5060547;28;20040;-68
2023/09/11 06:58:49;;;;;;;11.77;6.90;;;45.70;27.10;;;;;;5078761;28;20020;-69
2023/09/11 07:01:16;;;;;;;13.45;7.63;;;46.00;26.90;;;;;;5060480;28;20419;-68
2023/09/11 07:03:49;;;;;;;12.75;7.05;;;46.20;26.60;;;;;;5078011;28;20081;-68
2023/09/11 07:06:18;;;;;;;9.75;6.07;;;46.40;26.20;;;;;;5078223;28;20060;-68
2023/09/11 07:08:43;;;;;;;8.63;6.03;;;46.50;26.00;;;;;;5077770;28;20448;-68
2023/09/11 07:11:11;;;;;;;7.75;5.85;;;46.80;25.70;;;;;;5077809;28;20114;-69
2023/09/11 07:13:40;;;;;;;6.90;5.55;;;46.90;25.50;;;;;;5077753;28;20048;-68
2023/09/11 07:16:06;;;;;;;7.85;5.80;;;47.00;25.40;;;;;;5077952;28;20056;-68
2023/09/11 07:18:32;;;;;;;8.52;5.80;;;47.00;25.40;;;;;;5077691;28;20048;-68
2023/09/11 07:20:58;;;;;;;7.45;5.68;;;47.00;25.30;;;;;;5078231;28;20074;-70
2023/09/11 07:23:27;;;;;;;9.88;5.50;;;46.90;25.20;;;;;;5077687;28;20055;-69
2023/09/11 07:25:56;;;;;;;9.43;5.63;;;46.80;25.30;;;;;;5077547;28;20115;-70
2023/09/11 07:28:26;;;;;;;7.72;5.18;;;46.70;25.10;;;;;;5077054;28;20044;-67
2023/09/11 07:30:59;;;;;;;7.35;4.90;;;46.60;24.60;;;;;;5077459;28;20033;-67
2023/09/11 07:33:25;;;;;;;7.07;5.50;;;46.40;24.20;;;;;;5077420;28;20028;-69
2023/09/11 07:35:51;;;;;;;7.30;5.60;;;45.90;24.70;;;;;;5077379;28;20043;-67
2023/09/11 07:38:20;;;;;;;8.38;5.60;;;44.40;25.40;;;;;;5077604;28;20029;-67
2023/09/11 07:40:55;;;;;;;9.35;6.00;;;42.80;26.50;;;;;;5077306;28;20025;-68
2023/09/11 07:43:21;;;;;;;8.30;5.65;;;41.20;27.70;;;;;;5077167;28;20048;-70
2023/09/11 07:45:49;;;;;;;7.78;5.43;;;39.80;29.40;;;;;;5077181;28;20024;-68
2023/09/11 07:48:15;;;;;;;9.30;5.78;;;38.70;30.70;;;;;;5077239;28;20043;-68
2023/09/11 07:51:06;;;;;;;10.38;6.30;;;37.90;31.80;;;;;;5077139;28;20056;-68
2023/09/11 07:53:32;;;;;;;9.45;6.05;;;37.00;31.30;;;;;;5077696;28;20020;-69
2023/09/11 07:55:58;;;;;;;7.72;5.88;;;36.40;33.50;;;;;;5076989;28;20035;-67
2023/09/11 07:58:33;;;;;;;8.68;5.85;;;36.00;34.10;;;;;;5077208;28;20070;-68
2023/09/11 08:00:59;;;;;;;9.35;5.78;;;35.50;34.70;;;;;;5077545;28;20032;-69
2023/09/11 08:03:25;;;;;;;7.75;6.38;;;35.20;35.20;;;;;;5076914;28;20100;-68
2023/09/11 08:06:12;;;;;;;9.00;6.50;;;34.90;35.80;;;;;;5076737;28;20029;-69
2023/09/11 08:08:38;;;;;;;8.30;5.55;;;34.60;36.40;;;;;;5076848;28;20048;-68
2023/09/11 08:11:21;;;;;;;8.95;6.05;;;34.40;36.90;;;;;;5076768;28;20051;-67
2023/09/11 08:13:50;;;;;;;9.43;5.85;;;34.30;36.70;;;;;;5077282;28;20423;-69
2023/09/11 08:16:25;;;;;;;9.82;5.53;;;34.20;37.30;;;;;;5076639;28;20028;-69
2023/09/11 08:18:52;;;;;;;12.10;6.40;;;34.10;37.60;;;;;;5076657;28;20095;-68
2023/09/11 08:21:25;;;;;;;12.38;6.22;;;34.00;37.40;;;;;;5076865;28;20024;-68
2023/09/11 08:23:52;;;;;;;9.55;5.63;;;33.80;37.10;;;;;;5077046;28;20040;-68
2023/09/11 08:26:20;;;;;;;8.40;6.47;;;33.70;37.50;;;;;;5076386;28;20068;-68
2023/09/11 08:28:48;;;;;;;9.00;6.05;;;33.70;37.50;;;;;;5076301;28;20054;-69
2023/09/11 08:31:15;;;;;;;8.73;6.07;;;33.60;37.80;;;;;;5076330;28;20052;-67
2023/09/11 08:33:41;;;;;;;8.95;6.13;;;33.60;37.80;;;;;;5076506;28;20029;-69
2023/09/11 08:36:08;;;;;;;8.57;5.78;;;33.60;37.60;;;;;;5076203;28;20073;-68
2023/09/11 08:38:37;;;;;;;10.27;6.55;;;33.50;37.70;;;;;;5075919;28;20036;-68
2023/09/11 08:41:06;;;;;;;7.63;5.97;;;33.50;38.00;;;;;;5076006;28;20335;-68
2023/09/11 08:43:39;;;;;;;10.75;5.80;;;33.40;38.00;;;;;;5058435;28;20039;-68
2023/09/11 08:46:13;;;;;;;9.50;5.90;;;33.40;38.30;;;;;;5075803;28;20056;-69
2023/09/11 08:48:44;;;;;;;9.20;5.85;;;33.40;38.40;;;;;;5042114;28;20029;-69
2023/09/11 08:51:26;;;;;;;8.90;6.05;;;33.30;38.40;;;;;;5076231;28;20066;-68
2023/09/11 08:53:54;;;;;;;11.87;6.43;;;33.30;38.50;;;;;;5076210;28;20056;-69
2023/09/11 08:56:20;;;;;;;8.25;5.70;;;33.30;38.60;;;;;;5075857;28;20103;-69
2023/09/11 08:58:51;;;;;;;10.23;6.47;;;33.40;38.70;;;;;;5075742;28;20020;-68
2023/09/11 09:01:35;;;;;;;8.93;6.45;;;33.30;38.50;;;;;;5058196;28;20043;-67
2023/09/11 09:04:01;;;;;;;12.27;6.97;;;33.30;38.10;;;;;;5075694;28;20040;-68
2023/09/11 09:06:34;;;;;;;9.02;6.13;;;33.20;38.90;;;;;;5075564;28;20090;-67
2023/09/11 09:09:03;;;;;;;8.40;6.43;;;32.90;38.80;;;;;;5075037;28;20048;-67
2023/09/11 09:11:31;;;;;;;9.18;6.00;;;32.90;39.30;;;;;;5075617;28;20021;-68
2023/09/11 09:14:08;;;;;;;9.45;5.70;;;32.80;39.30;;;;;;5074510;28;20031;-67
2023/09/11 09:16:34;;;;;;;8.40;6.20;;;32.80;39.10;;;;;;5075509;28;20036;-68
2023/09/11 09:19:00;;;;;;;11.38;6.53;;;32.90;39.30;;;;;;5075438;28;20028;-68
2023/09/11 09:21:28;;;;;;;9.85;6.60;;;32.90;39.20;;;;;;5075719;28;20357;-67
2023/09/11 09:23:54;;;;;;;8.73;5.78;;;32.90;38.70;;;;;;5075350;28;20510;-68
2023/09/11 09:26:22;;;;;;;8.43;6.13;;;32.90;39.00;;;;;;5075305;28;20119;-67
2023/09/11 09:28:57;;;;;;;8.55;6.05;;;32.90;38.80;;;;;;5057627;28;20107;-67
2023/09/11 09:31:25;;;;;;;10.13;6.15;;;32.90;38.60;;;;;;5075488;28;20028;-67
2023/09/11 09:33:53;;;;;;;8.32;6.10;;;32.90;38.50;;;;;;5075554;28;20009;-68
2023/09/11 09:36:19;;;;;;;9.43;6.55;;;32.90;38.60;;;;;;5076019;28;20036;-68
2023/09/11 09:38:45;;;;;;;8.13;6.03;;;32.90;39.00;;;;;;5075101;28;20454;-68
2023/09/11 09:41:20;;;;;;;9.55;6.70;;;32.90;39.10;;;;;;5075177;28;20070;-68
2023/09/11 09:43:55;;;;;;;8.35;6.03;;;33.00;39.10;;;;;;5075178;28;20041;-68
2023/09/11 09:46:31;;;;;;;11.80;6.00;;;33.10;38.90;;;;;;5075114;28;20067;-67
2023/09/11 09:49:01;;;;;;;9.05;5.88;;;33.20;38.70;;;;;;5075074;28;20025;-67
2023/09/11 09:51:45;;;;;;;6.68;5.68;;;33.20;38.80;;;;;;5074506;28;20029;-66
2023/09/11 09:54:11;;;;;;;9.10;6.25;;;33.20;38.60;;;;;;5075422;28;20025;-67
2023/09/11 09:56:47;;;;;;;10.48;6.40;;;33.30;38.00;;;;;;5075036;28;20107;-67
2023/09/11 09:59:50;;;;;;;7.60;6.47;;;33.20;37.90;;;;;;5075140;28;20029;-66
2023/09/11 10:02:30;;;;;;;8.40;5.97;;;33.10;38.10;;;;;;5014052;28;20109;-68
2023/09/11 10:05:07;;;;;;;7.82;5.45;;;33.10;38.20;;;;;;5013867;28;20157;-67
2023/09/11 10:07:45;;;;;;;10.13;6.30;;;33.00;38.50;;;;;;4997153;28;20030;-68
2023/09/11 10:10:30;;;;;;;10.48;6.30;;;33.00;38.90;;;;;;5014168;28;20042;-68
2023/09/11 10:13:12;;;;;;;10.40;6.30;;;33.00;39.00;;;;;;5014155;28;20105;-67
2023/09/11 10:16:06;;;;;;;12.80;7.10;;;33.10;39.20;;;;;;5013594;28;20033;-67
2023/09/11 10:18:34;;;;;;;9.80;6.07;;;33.10;38.90;;;;;;5013981;28;20026;-67
2023/09/11 10:21:11;;;;;;;11.30;6.05;;;33.10;39.20;;;;;;5013453;28;20172;-68
2023/09/11 10:23:38;;;;;;;9.10;6.22;;;33.10;39.20;;;;;;5013440;28;20045;-68
2023/09/11 10:26:08;;;;;;;9.75;6.47;;;33.10;39.20;;;;;;5013376;28;20045;-68
2023/09/11 10:28:39;;;;;;;9.52;6.70;;;33.20;39.30;;;;;;5014094;28;20057;-67
2023/09/11 10:31:17;;;;;;;8.00;6.20;;;33.20;39.20;;;;;;5013992;28;20173;-67
2023/09/11 10:34:06;;;;;;;10.20;6.20;;;33.20;39.10;;;;;;5062864;28;20024;-67
2023/09/11 10:36:38;;;;;;;7.90;6.07;;;33.20;39.30;;;;;;5075276;28;20052;-68
2023/09/11 10:39:08;;;;;;;9.77;6.57;;;33.20;38.70;;;;;;5074698;28;20032;-68
2023/09/11 10:41:41;;;;;;;10.00;6.32;;;33.20;39.00;;;;;;5056998;28;20143;-67
2023/09/11 10:44:11;;;;;;;8.25;6.43;;;33.20;38.90;;;;;;5075151;28;20020;-66
2023/09/11 10:46:39;;;;;;;9.98;6.90;;;33.10;38.70;;;;;;5075106;28;20090;-68
2023/09/11 10:49:22;;;;;;;7.82;6.32;;;33.00;38.70;;;;;;5075127;28;20016;-67
2023/09/11 10:51:50;;;;;;;10.18;6.43;;;32.90;38.70;;;;;;5074916;28;20112;-67
2023/09/11 10:54:23;;;;;;;9.93;6.38;;;32.80;38.70;;;;;;5057189;28;20411;-67
2023/09/11 10:56:51;;;;;;;9.35;6.40;;;32.70;38.80;;;;;;5075100;28;20056;-67
2023/09/11 10:59:18;;;;;;;8.77;6.07;;;32.60;38.90;;;;;;5075068;28;20082;-67
2023/09/11 11:01:51;;;;;;;7.65;6.43;;;32.70;38.90;;;;;;5074811;28;20029;-66
2023/09/11 11:04:18;;;;;;;8.07;6.05;;;32.60;38.60;;;;;;5077724;28;20423;-67
2023/09/11 11:06:58;;;;;;;9.02;6.32;;;32.60;38.60;;;;;;5077945;28;20028;-69
2023/09/11 11:09:44;;;;;;;10.63;6.53;;;32.60;38.60;;;;;;5077945;28;20044;-68
2023/09/11 11:12:31;;;;;;;8.70;6.18;;;32.60;38.10;;;;;;5078526;28;20048;-68
2023/09/11 11:15:25;;;;;;;9.65;6.72;;;32.70;38.60;;;;;;5078416;28;20063;-67
2023/09/11 11:18:24;;;;;;;8.65;6.25;;;32.70;38.40;;;;;;5077751;28;20036;-68
2023/09/11 11:21:08;;;;;;;9.30;6.97;;;32.70;38.60;;;;;;5078346;28;20035;-69
2023/09/11 11:23:53;;;;;;;9.55;7.15;;;32.70;38.60;;;;;;5077648;28;20028;-68
2023/09/11 11:26:26;;;;;;;8.40;6.10;;;32.70;38.90;;;;;;5060014;28;20173;-68
2023/09/11 11:28:57;;;;;;;;;;;32.70;38.90;;;;;;5078242;28;20056;-66
2023/09/11 11:31:31;;;;;;;10.10;6.30;;;32.80;39.00;;;;;;5077856;28;20326;-68
2023/09/11 11:33:59;;;;;;;9.35;6.88;;;32.80;39.00;;;;;;5016469;28;20392;-68
2023/09/11 11:36:27;;;;;;;10.88;7.43;;;32.80;38.70;;;;;;4999752;28;20129;-67
2023/09/11 11:38:59;;;;;;;10.80;7.78;;;32.70;39.10;;;;;;5016580;28;20514;-67
2023/09/11 11:41:30;;;;;;;10.00;7.05;;;32.50;39.80;;;;;;5016004;28;20049;-67
2023/09/11 11:43:58;;;;;;;12.35;7.05;;;32.40;39.80;;;;;;5015924;28;20034;-68
2023/09/11 11:46:28;;;;;;;12.63;8.65;;;32.40;40.00;;;;;;5016533;28;20456;-68
2023/09/11 11:48:55;;;;;;;11.70;8.00;;;32.40;40.20;;;;;;5015677;28;20037;-68
2023/09/11 11:51:48;;;;;;;8.60;6.88;;;32.30;40.20;;;;;;5015736;28;20364;-67
2023/09/11 11:54:29;;;;;;;9.30;7.30;;;32.30;40.30;;;;;;5014123;28;20065;-68
2023/09/11 11:57:01;;;;;;;8.85;7.30;;;32.20;40.20;;;;;;5015530;28;20029;-67
2023/09/11 11:59:51;;;;;;;10.07;7.03;;;32.10;40.30;;;;;;5015874;28;20038;-67
2023/09/11 12:02:24;;;;;;;10.40;7.55;;;32.10;40.30;;;;;;5016123;28;20025;-68
2023/09/11 12:04:54;;;;;;;10.73;7.43;;;32.00;40.40;;;;;;5015537;28;20034;-67
2023/09/11 12:07:22;;;;;;;9.73;7.07;;;31.90;40.60;;;;;;5015609;28;20108;-68
2023/09/11 12:09:53;;;;;;;9.38;6.80;;;31.80;40.70;;;;;;5015009;28;20060;-69
2023/09/11 12:12:20;;;;;;;9.23;6.70;;;31.80;40.70;;;;;;5055690;28;20040;-68
2023/09/11 12:14:46;;;;;;;11.02;6.65;;;31.80;40.80;;;;;;5055626;28;20025;-68
2023/09/11 12:17:12;;;;;;;9.40;6.65;;;31.70;40.80;;;;;;5057108;28;20028;-67
2023/09/11 12:19:42;;;;;;;10.63;6.90;;;31.80;40.90;;;;;;5055676;28;20029;-68
2023/09/11 12:22:09;;;;;;;12.05;6.60;;;31.90;40.60;;;;;;5056657;28;20481;-68
2023/09/11 12:24:36;;;;;;;10.20;6.25;;;31.90;40.50;;;;;;5056795;28;20036;-67
2023/09/11 12:27:04;;;;;;;8.60;6.63;;;31.90;40.30;;;;;;5056437;28;20074;-67
2023/09/11 12:29:32;;;;;;;11.23;6.55;;;31.90;40.30;;;;;;5056731;28;20051;-68
2023/09/11 12:32:14;;;;;;;9.48;6.72;;;31.80;40.30;;;;;;5056400;28;20538;-69
2023/09/11 12:34:45;;;;;;;7.93;5.90;;;31.80;40.30;;;;;;5056374;28;20029;-67
2023/09/11 12:37:11;;;;;;;9.68;6.47;;;31.80;40.30;;;;;;5056465;28;20033;-67
2023/09/11 12:39:37;;;;;;;7.95;5.80;;;31.80;40.30;;;;;;5056536;28;20032;-68
2023/09/11 12:42:11;;;;;;;9.60;6.35;;;31.90;40.00;;;;;;5055339;28;20021;-68
2023/09/11 12:44:43;;;;;;;8.07;6.32;;;31.90;39.90;;;;;;5056730;28;20036;-68
2023/09/11 12:47:10;;;;;;;7.45;6.28;;;31.90;40.00;;;;;;5056638;28;20025;-67
2023/09/11 12:49:40;;;;;;;7.35;6.10;;;32.00;39.90;;;;;;5056346;28;20021;-67
2023/09/11 12:54:32;;;;;;;8.07;6.30;;;31.90;39.40;;;;;;5056511;28;20021;-67
2023/09/11 12:57:07;;;;;;;8.75;6.50;;;31.90;39.30;;;;;;5056071;28;20043;-67
2023/09/11 12:59:38;;;;;;;8.40;6.50;;;31.80;39.10;;;;;;5055766;28;20439;-67
2023/09/11 13:02:06;;;;;;;9.35;6.05;;;31.70;39.40;;;;;;5055839;28;20069;-67
2023/09/11 13:04:36;;;;;;;9.80;6.20;;;31.60;39.60;;;;;;5055774;28;20443;-67
2023/09/11 13:07:13;;;;;;;7.55;6.00;;;31.70;39.60;;;;;;5055572;28;20029;-68
2023/09/11 13:09:43;;;;;;;7.63;6.47;;;31.70;39.70;;;;;;5070674;28;20125;-68